createdAt,value
2019-05-03T00:01:05.324Z,13.80
2019-05-03T00:03:35.443Z,12.67
2019-05-03T00:06:06.270Z,16.10
2019-05-03T00:08:36.500Z,13.43
2019-05-03T00:11:07.030Z,16.13
2019-05-03T00:13:37.762Z,15.70
2019-05-03T00:16:18.736Z,11.77
2019-05-03T00:18:48.854Z,15.90
2019-05-03T00:21:19.387Z,18.67
2019-05-03T00:23:49.706Z,20.33
2019-05-03T00:26:19.829Z,19.63
2019-05-03T00:28:51.911Z,14.80
2019-05-03T00:31:22.692Z,15.40
2019-05-03T00:33:57.965Z,18.50
2019-05-03T00:36:29.632Z,18.97
2019-05-03T00:39:01.947Z,17.47
2019-05-03T00:41:32.622Z,18.83
2019-05-03T00:44:02.946Z,16.20
2019-05-03T00:46:33.474Z,16.47
2019-05-03T00:49:04.009Z,23.17
2019-05-03T00:51:34.332Z,14.60
2019-05-03T00:54:04.856Z,17.70
2019-05-03T00:56:35.386Z,18.37
2019-05-03T00:59:06.119Z,14.20
2019-05-03T01:01:36.442Z,18.87
2019-05-03T01:04:06.768Z,17.70
2019-05-03T01:06:37.089Z,16.97
2019-05-03T01:09:09.460Z,13.83
2019-05-03T01:11:41.720Z,21.33
2019-05-03T01:14:12.011Z,16.50
2019-05-03T01:16:42.770Z,13.27
2019-05-03T01:19:13.417Z,19.40
2019-05-03T01:21:43.734Z,16.30
2019-05-03T01:24:13.861Z,15.47
2019-05-03T01:26:44.184Z,16.23
2019-05-03T01:29:14.508Z,15.90
2019-05-03T01:31:45.038Z,22.63
2019-05-03T01:34:15.360Z,17.40
2019-05-03T01:36:45.683Z,16.30
2019-05-03T01:39:16.212Z,21.00
2019-05-03T01:41:46.740Z,16.97
2019-05-03T01:44:16.956Z,14.47
2019-05-03T01:46:49.224Z,20.03
2019-05-03T01:49:22.768Z,16.13
2019-05-03T01:52:02.246Z,15.63
2019-05-03T01:54:33.310Z,19.43
2019-05-03T01:57:03.637Z,17.80
2019-05-03T01:59:33.965Z,19.00
2019-05-03T02:02:07.343Z,91.77
2019-05-03T02:04:39.315Z,109.17
2019-05-03T02:07:09.435Z,48.77
2019-05-03T02:09:41.584Z,42.47
2019-05-03T02:12:12.725Z,22.70
2019-05-03T02:14:43.480Z,43.87
2019-05-03T02:17:13.801Z,65.60
2019-05-03T02:19:44.127Z,34.30
2019-05-03T02:22:14.653Z,54.00
2019-05-03T02:24:45.182Z,38.57
2019-05-03T02:27:15.507Z,34.73
2019-05-03T02:29:45.829Z,41.70
2019-05-03T02:32:16.153Z,34.57
2019-05-03T02:34:46.478Z,46.97
2019-05-03T02:37:17.006Z,19.07
2019-05-03T02:39:52.762Z,24.80
2019-05-03T02:42:21.955Z,17.63
2019-05-03T02:44:52.278Z,20.70
2019-05-03T02:47:36.737Z,23.90
2019-05-03T02:50:09.718Z,26.90
2019-05-03T02:52:39.838Z,27.00
2019-05-03T02:55:11.800Z,22.73
2019-05-03T02:57:42.127Z,32.30
2019-05-03T03:00:16.355Z,25.90
2019-05-03T03:02:46.868Z,15.60
2019-05-03T03:05:17.177Z,21.27
2019-05-03T03:07:49.564Z,16.10
2019-05-03T03:10:20.093Z,22.67
2019-05-03T03:12:55.133Z,20.33
2019-05-03T03:15:26.154Z,15.33
2019-05-03T03:17:59.257Z,19.43
2019-05-03T03:20:32.652Z,21.90
2019-05-03T03:23:06.156Z,23.73
2019-05-03T03:25:39.430Z,19.07
2019-05-03T03:28:12.427Z,15.60
2019-05-03T03:30:57.751Z,13.13
2019-05-03T03:33:28.684Z,19.63
2019-05-03T03:36:29.290Z,16.07
2019-05-03T03:38:35.128Z,15.63
2019-05-03T03:41:05.913Z,15.67
2019-05-03T03:43:37.104Z,11.13
2019-05-03T03:46:08.961Z,12.00
2019-05-03T03:48:41.232Z,21.40
2019-05-03T03:51:12.264Z,16.67
2019-05-03T03:53:46.580Z,8.90
2019-05-03T03:56:20.397Z,22.33
2019-05-03T03:58:55.364Z,16.70
2019-05-03T04:01:26.642Z,17.47
2019-05-03T04:03:57.716Z,16.87
2019-05-03T04:06:43.037Z,12.80
2019-05-03T04:09:15.865Z,10.27
2019-05-03T04:11:46.460Z,14.87
2019-05-03T04:14:19.287Z,18.20
2019-05-03T04:16:58.623Z,17.13
2019-05-03T04:19:36.931Z,8.80
2019-05-03T04:22:07.911Z,20.87
2019-05-03T04:24:38.399Z,14.47
2019-05-03T04:27:18.660Z,10.27
2019-05-03T04:29:41.710Z,19.47
2019-05-03T04:32:15.415Z,16.13
2019-05-03T04:34:45.284Z,11.77
2019-05-03T04:37:16.449Z,21.03
2019-05-03T04:39:46.894Z,10.67
2019-05-03T04:42:17.429Z,16.33
2019-05-03T04:44:47.956Z,9.17
2019-05-03T04:47:18.483Z,21.47
2019-05-03T04:49:49.010Z,15.13
2019-05-03T04:52:19.538Z,18.87
2019-05-03T04:54:51.704Z,21.87
2019-05-03T04:57:36.455Z,13.67
2019-05-03T04:59:56.008Z,25.33
2019-05-03T05:02:26.539Z,11.83
2019-05-03T05:04:57.299Z,14.87
2019-05-03T05:07:27.828Z,18.40
2019-05-03T05:09:58.143Z,11.97
2019-05-03T05:12:29.500Z,14.43
2019-05-03T05:15:00.029Z,15.40
2019-05-03T05:17:35.523Z,14.13
2019-05-03T05:20:16.437Z,12.10
2019-05-03T05:22:47.180Z,13.60
2019-05-03T05:25:19.027Z,11.70
2019-05-03T05:28:09.535Z,14.60
2019-05-03T05:30:39.859Z,16.93
2019-05-03T05:33:11.822Z,11.13
2019-05-03T05:35:44.350Z,9.13
2019-05-03T05:38:16.349Z,13.63
2019-05-03T05:40:46.888Z,6.90
2019-05-03T05:43:37.068Z,8.37
2019-05-03T05:46:07.403Z,13.63
2019-05-03T05:48:39.165Z,16.20
2019-05-03T05:51:09.893Z,9.13
2019-05-03T05:53:40.422Z,11.37
2019-05-03T05:56:31.029Z,18.37
2019-05-03T05:59:08.810Z,17.03
2019-05-03T06:01:41.303Z,8.10
2019-05-03T06:04:11.822Z,6.27
2019-05-03T06:06:45.110Z,8.47
2019-05-03T06:09:32.129Z,9.73
2019-05-03T06:12:04.516Z,10.00
2019-05-03T06:14:40.867Z,10.07
2019-05-03T06:17:15.389Z,6.53
2019-05-03T06:20:05.305Z,7.70
2019-05-03T06:22:44.697Z,6.47
2019-05-03T06:28:18.303Z,5.27
2019-05-03T06:30:55.414Z,5.77
2019-05-03T06:33:25.943Z,8.07
2019-05-03T06:35:56.263Z,9.00
2019-05-03T06:38:26.997Z,7.50
2019-05-03T06:40:57.321Z,4.53
2019-05-03T06:43:27.645Z,7.67
2019-05-03T06:45:58.268Z,5.50
2019-05-03T06:48:31.981Z,1.77
2019-05-03T06:51:08.770Z,2.67
2019-05-03T06:53:34.520Z,3.40
2019-05-03T06:56:29.125Z,2.47
2019-05-03T06:58:57.849Z,3.53
2019-05-03T07:01:30.836Z,2.43
2019-05-03T07:04:04.974Z,2.53
2019-05-03T07:06:52.168Z,4.07
2019-05-03T07:09:25.010Z,4.40
2019-05-03T07:11:55.683Z,3.60
2019-05-03T07:14:26.211Z,3.90
2019-05-03T07:16:56.535Z,3.87
2019-05-03T07:19:27.064Z,4.30
2019-05-03T07:21:57.594Z,4.27
2019-05-03T07:24:27.916Z,5.33
2019-05-03T07:26:59.128Z,5.00
2019-05-03T07:29:29.589Z,4.67
2019-05-03T07:31:59.911Z,4.83
2019-05-03T07:34:30.238Z,3.75
2019-05-03T07:37:00.558Z,5.50
2019-05-03T07:39:30.882Z,7.25
2019-05-03T07:42:01.206Z,9.13
2019-05-03T07:44:31.737Z,5.90
2019-05-03T07:47:04.168Z,6.60
2019-05-03T07:49:35.678Z,4.33
2019-05-03T07:52:07.620Z,7.03
2019-05-03T07:54:37.951Z,4.53
2019-05-03T07:57:09.694Z,10.50
2019-05-03T07:59:41.664Z,2.98
2019-05-03T08:02:14.210Z,2.52
2019-05-03T08:04:44.487Z,1.60
2019-05-03T08:07:22.343Z,3.05
2019-05-03T08:09:46.645Z,3.37
2019-05-03T08:12:17.380Z,4.17
2019-05-03T08:14:48.115Z,4.45
2019-05-03T08:17:18.845Z,2.42
2019-05-03T08:19:49.374Z,4.50
2019-05-03T08:22:21.132Z,2.58
2019-05-03T08:24:51.456Z,2.45
2019-05-03T08:27:21.696Z,4.08
2019-05-03T08:29:51.601Z,3.33
2019-05-03T08:32:25.890Z,7.55
2019-05-03T08:35:06.224Z,2.42
2019-05-03T08:37:46.553Z,5.60
2019-05-03T08:40:16.545Z,11.68
2019-05-03T08:42:46.621Z,9.48
2019-05-03T08:45:16.722Z,8.40
2019-05-03T08:47:46.806Z,5.42
2019-05-03T08:50:21.399Z,4.80
2019-05-03T08:52:48.353Z,5.12
2019-05-03T08:55:18.362Z,6.37
2019-05-03T08:57:48.342Z,4.58
2019-05-03T09:00:19.899Z,3.27
2019-05-03T09:02:49.965Z,4.10
2019-05-03T09:05:19.972Z,3.22
2019-05-03T09:07:50.846Z,2.30
2019-05-03T09:10:24.803Z,5.15
2019-05-03T09:13:07.575Z,6.50
2019-05-03T09:15:39.258Z,6.70
2019-05-03T09:18:09.358Z,5.60
2019-05-03T09:20:39.254Z,4.40
2019-05-03T09:23:09.196Z,4.58
2019-05-03T09:25:39.160Z,7.47
2019-05-03T09:28:09.092Z,7.67
2019-05-03T09:30:39.171Z,5.70
2019-05-03T09:33:09.381Z,5.55
2019-05-03T09:35:39.409Z,3.95
2019-05-03T09:38:09.494Z,2.35
2019-05-03T09:40:39.446Z,2.77
2019-05-03T09:43:09.485Z,2.27
2019-05-03T09:45:39.555Z,2.05
2019-05-03T09:48:09.469Z,3.77
2019-05-03T09:50:39.451Z,5.28
2019-05-03T09:53:09.362Z,1.40
2019-05-03T09:55:40.996Z,9.25
2019-05-03T09:58:10.904Z,5.65
2019-05-03T10:00:41.537Z,4.53
2019-05-03T10:03:11.516Z,2.42
2019-05-03T10:05:41.524Z,5.42
2019-05-03T10:08:11.584Z,2.90
2019-05-03T10:10:54.901Z,4.83
2019-05-03T10:13:27.144Z,8.43
2019-05-03T10:15:56.470Z,4.75
2019-05-03T10:18:26.582Z,3.83
2019-05-03T10:20:56.654Z,6.15
2019-05-03T10:23:37.386Z,14.60
2019-05-03T10:26:07.494Z,11.60
2019-05-03T10:28:37.470Z,12.33
2019-05-03T10:31:07.939Z,12.23
2019-05-03T10:33:39.661Z,6.13
2019-05-03T10:36:09.654Z,5.70
2019-05-03T10:38:39.588Z,7.20
2019-05-03T10:41:09.700Z,8.40
2019-05-03T10:43:39.618Z,6.87
2019-05-03T10:46:09.636Z,13.43
2019-05-03T10:48:40.263Z,5.70
2019-05-03T10:51:10.256Z,8.17
2019-05-03T10:53:41.704Z,4.90
2019-05-03T10:56:23.213Z,4.67
2019-05-03T10:59:06.237Z,4.30
2019-05-03T11:01:50.023Z,4.00
2019-05-03T11:04:20.208Z,2.10
2019-05-03T11:06:50.480Z,1.80
2019-05-03T11:09:20.595Z,4.65
2019-05-03T11:11:50.526Z,2.75
2019-05-03T11:14:20.569Z,2.67
2019-05-03T11:16:50.447Z,3.45
2019-05-03T11:19:20.560Z,3.67
2019-05-03T11:21:50.456Z,5.47
2019-05-03T11:24:23.340Z,8.00
2019-05-03T11:26:55.694Z,9.10
2019-05-03T11:29:25.171Z,8.30
2019-05-03T11:32:08.204Z,14.00
2019-05-03T11:34:41.868Z,15.43
2019-05-03T11:37:16.388Z,3.97
2019-05-03T11:39:46.305Z,4.78
2019-05-03T11:42:18.464Z,3.37
2019-05-03T11:44:47.861Z,5.33
2019-05-03T11:47:17.781Z,10.38
2019-05-03T11:49:47.694Z,6.95
2019-05-03T11:52:17.693Z,4.03
2019-05-03T11:54:47.638Z,3.67
2019-05-03T11:57:22.128Z,6.00
2019-05-03T11:59:52.150Z,3.42
2019-05-03T12:02:29.500Z,5.95
2019-05-03T12:05:04.997Z,2.65
2019-05-03T12:07:39.655Z,3.95
2019-05-03T12:10:16.730Z,3.42
2019-05-03T12:12:49.253Z,3.52
2019-05-03T12:15:19.518Z,3.37
2019-05-03T12:17:55.427Z,9.43
2019-05-03T12:20:24.873Z,6.05
2019-05-03T12:22:55.429Z,3.75
2019-05-03T12:25:26.661Z,3.45
2019-05-03T12:27:59.002Z,6.10
2019-05-03T12:30:29.325Z,4.90
2019-05-03T12:32:59.854Z,10.63
2019-05-03T12:35:30.178Z,5.58
2019-05-03T12:38:00.508Z,3.37
2019-05-03T12:40:30.824Z,4.07
2019-05-03T12:43:01.148Z,3.87
2019-05-03T12:45:31.361Z,5.07
2019-05-03T12:48:04.855Z,4.40
2019-05-03T12:50:35.191Z,4.43
2019-05-03T12:53:05.720Z,5.20
2019-05-03T12:55:36.249Z,3.25
2019-05-03T12:58:06.679Z,2.37
2019-05-03T13:00:55.642Z,5.30
2019-05-03T13:03:27.905Z,3.67
2019-05-03T13:05:57.948Z,3.47
2019-05-03T13:08:35.353Z,8.63
2019-05-03T13:11:06.094Z,6.40
2019-05-03T13:13:36.239Z,4.87
2019-05-03T13:16:07.571Z,4.97
2019-05-03T13:18:37.473Z,3.53
2019-05-03T13:21:07.954Z,5.07
2019-05-03T13:23:37.983Z,2.47
2019-05-03T13:26:08.025Z,4.47
2019-05-03T13:28:37.987Z,4.40
2019-05-03T13:31:07.903Z,3.92
2019-05-03T13:33:37.793Z,1.95
2019-05-03T13:36:07.807Z,2.05
2019-05-03T13:38:37.720Z,2.67
2019-05-03T13:41:07.760Z,2.40
2019-05-03T13:43:37.683Z,2.62
2019-05-03T13:46:07.758Z,2.50
2019-05-03T13:48:45.451Z,2.60
2019-05-03T13:51:09.362Z,5.05
2019-05-03T13:53:39.232Z,4.65
2019-05-03T13:56:09.234Z,2.33
2019-05-03T13:58:39.178Z,3.05
2019-05-03T14:01:09.184Z,4.05
2019-05-03T14:03:39.122Z,3.90
2019-05-03T14:06:09.627Z,7.03
2019-05-03T14:08:39.758Z,2.95
2019-05-03T14:11:09.670Z,8.65
2019-05-03T14:13:39.690Z,2.95
2019-05-03T14:16:09.703Z,2.00
2019-05-03T14:18:41.299Z,4.22
2019-05-03T14:21:24.629Z,3.35
2019-05-03T14:24:09.896Z,4.28
2019-05-03T14:26:41.312Z,2.08
2019-05-03T14:29:11.329Z,4.33
2019-05-03T14:31:41.355Z,2.67
2019-05-03T14:34:11.423Z,3.15
2019-05-03T14:36:41.423Z,2.52
2019-05-03T14:39:11.367Z,4.20
2019-05-03T14:41:46.461Z,6.55
2019-05-03T14:44:15.608Z,2.55
2019-05-03T14:46:46.019Z,4.72
2019-05-03T14:49:16.024Z,4.40
2019-05-03T14:51:45.936Z,4.33
2019-05-03T14:54:16.041Z,4.25
2019-05-03T14:56:53.447Z,5.62
2019-05-03T14:59:27.950Z,6.87
2019-05-03T15:02:15.670Z,4.20
2019-05-03T15:04:45.739Z,6.73
2019-05-03T15:07:15.741Z,4.58
2019-05-03T15:09:45.908Z,5.10
2019-05-03T15:12:15.876Z,4.20
2019-05-03T15:14:45.812Z,5.58
2019-05-03T15:17:15.728Z,7.10
2019-05-03T15:19:45.675Z,2.62
2019-05-03T15:22:15.557Z,6.40
2019-05-03T15:24:45.528Z,3.97
2019-05-03T15:27:15.461Z,6.00
2019-05-03T15:29:45.721Z,9.47
2019-05-03T15:32:15.703Z,9.73
2019-05-03T15:34:45.764Z,17.00
2019-05-03T15:37:15.774Z,7.40
2019-05-03T15:39:45.744Z,13.63
2019-05-03T15:42:16.251Z,6.00
2019-05-03T15:45:05.211Z,4.07
2019-05-03T15:47:39.731Z,2.83
2019-05-03T15:50:09.658Z,6.20
2019-05-03T15:52:39.594Z,3.70
2019-05-03T15:55:10.944Z,4.37
2019-05-03T15:57:41.368Z,2.13
2019-05-03T16:00:15.012Z,6.47
2019-05-03T16:02:44.524Z,6.23
2019-05-03T16:05:15.580Z,7.73
2019-05-03T16:07:45.692Z,11.77
2019-05-03T16:10:15.716Z,7.20
2019-05-03T16:12:45.696Z,11.90
2019-05-03T16:15:15.736Z,7.77
2019-05-03T16:17:45.664Z,6.63
2019-05-03T16:20:15.972Z,5.07
2019-05-03T16:22:46.666Z,7.53
2019-05-03T16:25:16.655Z,7.30
2019-05-03T16:27:49.230Z,4.77
2019-05-03T16:30:20.680Z,6.57
2019-05-03T16:32:50.749Z,3.50
2019-05-03T16:35:20.678Z,4.67
2019-05-03T16:37:50.641Z,5.47
2019-05-03T16:40:20.558Z,7.27
2019-05-03T16:42:50.857Z,7.63
2019-05-03T16:45:20.844Z,6.97
2019-05-03T16:47:50.716Z,6.77
2019-05-03T16:50:20.649Z,9.77
2019-05-03T16:52:50.597Z,7.60
2019-05-03T16:55:20.614Z,6.23
2019-05-03T16:57:50.598Z,9.23
2019-05-03T17:00:20.791Z,6.23
2019-05-03T17:02:50.796Z,5.67
2019-05-03T17:05:25.300Z,7.30
2019-05-03T17:08:14.689Z,6.13
2019-05-03T17:10:48.950Z,3.13
2019-05-03T17:13:18.951Z,4.47
2019-05-03T17:15:48.851Z,3.37
2019-05-03T17:18:18.907Z,5.17
2019-05-03T17:20:48.888Z,5.63
2019-05-03T17:23:18.930Z,7.87
2019-05-03T17:25:48.866Z,5.47
2019-05-03T17:28:18.744Z,7.33
2019-05-03T17:30:48.699Z,7.90
2019-05-03T17:33:18.749Z,6.93
2019-05-03T17:35:48.819Z,7.77
2019-05-03T17:38:18.892Z,9.43
2019-05-03T17:41:06.688Z,12.87
2019-05-03T17:43:40.872Z,7.83
2019-05-03T17:46:12.203Z,8.37
2019-05-03T17:48:42.246Z,5.33
2019-05-03T17:51:14.946Z,7.17
2019-05-03T17:53:46.507Z,9.23
2019-05-03T17:56:24.448Z,13.00
2019-05-03T17:58:58.942Z,16.67
2019-05-03T18:01:30.637Z,14.23
2019-05-03T18:04:09.126Z,9.53
2019-05-03T18:06:58.482Z,9.00
2019-05-03T18:09:30.065Z,18.43
2019-05-03T18:12:06.439Z,12.43
2019-05-03T18:14:36.952Z,7.67
2019-05-03T18:17:07.030Z,6.20
2019-05-03T18:19:36.914Z,3.83
2019-05-03T18:22:06.889Z,5.80
2019-05-03T18:24:36.759Z,4.43
2019-05-03T18:27:06.835Z,5.13
2019-05-03T18:29:36.883Z,10.13
2019-05-03T18:32:06.767Z,5.43
2019-05-03T18:34:36.595Z,11.90
2019-05-03T18:37:06.924Z,11.03
2019-05-03T18:39:36.922Z,7.90
2019-05-03T18:42:09.018Z,14.63
2019-05-03T18:44:46.162Z,19.67
2019-05-03T18:47:17.787Z,31.60
2019-05-03T18:49:47.719Z,25.00
2019-05-03T18:52:18.152Z,34.33
2019-05-03T18:54:48.124Z,29.33
2019-05-03T18:57:18.106Z,22.40
2019-05-03T18:59:48.174Z,12.37
2019-05-03T19:02:18.401Z,7.73
2019-05-03T19:04:50.353Z,12.20
2019-05-03T19:07:28.060Z,11.73
2019-05-03T19:12:39.562Z,16.67
2019-05-03T19:15:11.307Z,14.60
2019-05-03T19:17:46.118Z,13.63
2019-05-03T19:22:57.036Z,20.40
2019-05-03T19:25:27.770Z,26.73
2019-05-03T19:27:58.299Z,25.17
2019-05-03T19:30:28.827Z,23.03
2019-05-03T19:32:59.355Z,23.63
2019-05-03T19:35:29.892Z,18.00
2019-05-03T19:38:00.414Z,19.97
2019-05-03T19:40:30.521Z,24.80
2019-05-03T19:43:02.697Z,22.53
2019-05-03T19:45:32.817Z,18.17
2019-05-03T19:48:03.178Z,18.87
2019-05-03T19:50:35.261Z,23.07
2019-05-03T19:53:07.476Z,16.37
2019-05-03T19:55:37.802Z,24.00
2019-05-03T19:58:08.143Z,22.57
2019-05-03T20:00:54.917Z,23.33
2019-05-03T20:03:30.048Z,20.23
2019-05-03T20:06:01.931Z,22.60
2019-05-03T20:08:36.553Z,25.10
2019-05-03T20:11:15.016Z,26.60
2019-05-03T20:13:49.591Z,27.80
2019-05-03T20:16:22.488Z,33.40
2019-05-03T20:18:52.902Z,25.20
2019-05-03T20:21:25.139Z,38.70
2019-05-03T20:23:57.030Z,32.73
2019-05-03T20:26:29.813Z,29.23
2019-05-03T20:29:00.551Z,31.23
2019-05-03T20:31:32.097Z,25.70
2019-05-03T20:34:02.661Z,29.83
2019-05-03T20:36:35.106Z,30.17
2019-05-03T20:39:06.756Z,30.07
2019-05-03T20:41:37.285Z,25.33
2019-05-03T20:44:14.981Z,20.77
2019-05-03T20:46:46.831Z,22.43
2019-05-03T20:49:17.564Z,21.87
2019-05-03T20:51:51.294Z,22.87
2019-05-03T20:54:20.581Z,15.30
2019-05-03T20:56:51.105Z,20.97
2019-05-03T20:59:22.509Z,21.53
2019-05-03T21:01:54.613Z,20.90
2019-05-03T21:04:25.564Z,21.23
2019-05-03T21:06:56.342Z,32.40
2019-05-03T21:09:28.508Z,17.57
2019-05-03T21:11:58.986Z,22.40
2019-05-03T21:14:48.403Z,21.33
2019-05-03T21:17:26.044Z,19.43
2019-05-03T21:20:00.992Z,20.33
2019-05-03T21:22:35.273Z,19.97
2019-05-03T21:25:11.982Z,15.63
2019-05-03T21:27:45.781Z,16.27
2019-05-03T21:30:17.335Z,22.23
2019-05-03T21:32:47.660Z,35.30
2019-05-03T21:35:17.778Z,21.50
2019-05-03T21:37:48.304Z,22.10
2019-05-03T21:40:18.866Z,21.87
2019-05-03T21:42:50.606Z,19.10
2019-05-03T21:45:27.901Z,21.77
2019-05-03T21:47:59.841Z,23.33
2019-05-03T21:50:30.377Z,34.63
2019-05-03T21:53:05.846Z,29.67
2019-05-03T21:55:36.549Z,30.17
2019-05-03T21:58:06.871Z,27.33
2019-05-03T22:00:42.264Z,19.83
2019-05-03T22:03:14.502Z,16.00
2019-05-03T22:05:54.756Z,24.27
2019-05-03T22:08:17.176Z,18.03
2019-05-03T22:10:48.317Z,24.17
2019-05-03T22:13:19.665Z,49.20
2019-05-03T22:15:51.627Z,16.83
2019-05-03T22:18:24.687Z,15.43
2019-05-03T22:21:01.081Z,18.13
2019-05-03T22:23:40.830Z,18.57
2019-05-03T22:26:11.559Z,13.40
2019-05-03T22:28:42.087Z,12.20
2019-05-03T22:31:12.617Z,15.67
2019-05-03T22:33:46.099Z,19.57
2019-05-03T22:36:14.908Z,21.80
2019-05-03T22:38:45.463Z,33.03
2019-05-03T22:41:15.758Z,29.97
2019-05-03T22:43:46.488Z,24.40
2019-05-03T22:46:16.811Z,23.37
2019-05-03T22:48:47.340Z,13.47
2019-05-03T22:51:17.664Z,17.77
2019-05-03T22:53:48.193Z,15.00
2019-05-03T22:56:18.517Z,15.07
2019-05-03T22:58:48.841Z,13.67
2019-05-03T23:01:19.052Z,19.15
2019-05-03T23:03:49.897Z,14.20
2019-05-03T23:06:22.631Z,16.13
2019-05-03T23:08:56.009Z,17.03
2019-05-03T23:11:24.759Z,16.10
2019-05-03T23:14:05.092Z,17.90
2019-05-03T23:16:35.823Z,19.57
2019-05-03T23:19:07.404Z,16.80
2019-05-03T23:21:48.474Z,15.80
2019-05-03T23:24:19.316Z,13.53
2019-05-03T23:26:49.641Z,13.60
2019-05-03T23:29:19.963Z,13.53
2019-05-03T23:31:50.492Z,17.70
2019-05-03T23:34:20.611Z,15.70
2019-05-03T23:36:51.140Z,17.97
2019-05-03T23:39:21.259Z,21.00
2019-05-03T23:41:51.582Z,18.53
2019-05-03T23:44:21.704Z,14.27
2019-05-03T23:46:54.543Z,12.97
2019-05-03T23:49:25.122Z,15.60
2019-05-03T23:51:57.384Z,18.93
2019-05-03T23:54:27.707Z,12.83
2019-05-03T23:56:58.235Z,22.87
2019-05-03T23:59:28.763Z,16.67
